Valle Toledo, Valles Caldera, New Mexico Weather observations

Data are for 10 minute period ending at time listed.
 Day   Time   Solar   Ave.   Ave.  Ave.  Vector  Max.   Baro.   Total    
  of    of     Rad.   Air    Rel.  Wind   Wind   Wind  Press.  Precip.   
Year   Day            Temp.  Hum.  Speed  Dir.   Gust                    
2017   (MST)  Kw/m2    F      %     mph   deg.    mph    mb.     in.     
-------------------------------------------------------------------------
 142    3:30   0.00   40.7    49    2.1   264     4.8   732.7    0.00 
 142    3:40   0.00   41.0    49    2.7   283     8.4   732.7    0.00 
 142    3:50   0.00   40.4    51    2.8   279     6.0   732.7    0.00 
 142    4:00   0.00   41.2    50    3.6   269     7.8   732.7    0.00 
 142    4:10   0.00   40.6    51    3.0   289     8.4   732.7    0.00 
 142    4:20   0.00   40.5    52    3.0   247     7.2   732.6    0.00 
 142    4:30   0.00   39.8    54    2.0   268     4.2   732.5    0.00 
 142    4:40   0.00   39.0    56    2.2   244     4.8   732.5    0.00 
 142    4:50   0.00   38.6    56    2.0   294     3.6   732.4    0.00 
 142    5:00   0.00   38.1    58    1.7   348     3.0   732.5    0.00 
 142    5:10   0.01   37.5    59    2.1    41     3.6   732.5    0.00 
 142    5:20   0.01   37.1    60    2.9    26     4.8   732.6    0.00 
 142    5:30   0.01   37.5    60    2.4     6     4.8   732.7    0.00 
 142    5:40   0.01   37.7    60    2.8    41     4.8   732.6    0.00 
 142    5:50   0.01   37.7    60    3.4    37     4.8   732.7    0.00 
 142    6:00   0.02   38.0    60    2.8    30     5.4   732.7    0.00 
 142    6:10   0.04   38.0    60    2.6    27     4.8   732.8    0.00 
 142    6:20   0.20   40.7    55    3.5    49     4.2   732.9    0.00 
 142    6:30   0.20   42.7    52    3.5    66     4.8   733.0    0.00 
 142    6:40   0.25   43.0    51    2.6    53     3.6   733.0    0.00 
 142    6:50   0.30   44.9    48    2.7    67     3.6   733.0    0.00 
 142    7:00   0.34   47.5    44    2.3    87     3.6   733.0    0.00 
 142    7:10   0.37   49.3    38    2.1    81     4.2   732.9    0.00 
 142    7:20   0.41   50.8    36    3.1   301     7.2   732.9    0.00 
 142    7:30   0.44   49.2    39    4.9   224     8.4   732.8    0.00 
 142    7:40   0.47   49.3    39    4.0   241     8.4   732.9    0.00 
 142    7:50   0.50   50.1    39    5.7   234    10.8   732.9    0.00 
 142    8:00   0.53   50.1    39    5.5   236    11.3   732.9    0.00 
 142    8:10   0.56   50.3    36    5.9   234    11.9   733.0    0.00 
 142    8:20   0.60   50.5    36    6.4   254    11.9   733.1    0.00 
 142    8:30   0.63   51.4    35    6.1   252    10.8   733.1    0.00 
 142    8:40   0.67   51.9    34    8.3   262    16.7   733.0    0.00 
 142    8:50   0.71   52.1    35    8.2   250    13.7   733.0    0.00 
 142    9:00   0.75   52.4    36    8.2   246    13.7   733.0    0.00 
 142    9:10   0.76   52.4    36    8.4   246    14.3   733.0    0.00 
 142    9:20   0.77   52.7    36    7.9   249    13.7   733.0    0.00 
 142    9:30   0.79   53.0    34    7.9   257    13.7   733.1    0.00 
 142    9:40   0.81   52.7    33    8.9   257    17.3   733.0    0.00 
 142    9:50   0.83   53.1    33    8.1   254    17.9   732.9    0.00 
 142   10:00   0.85   53.0    32    8.8   249    17.3   732.9    0.00 
 142   10:10   0.87   53.2    32    8.0   261    15.5   732.9    0.00 
 142   10:20   0.88   53.7    32    7.5   254    15.5   733.0    0.00 
 142   10:30   0.91   54.3    31    6.7   237    11.9   732.9    0.00 
 142   10:40   0.82   54.5    30    7.9   260    13.1   732.9    0.00 
 142   10:50   0.72   54.0    30    7.5   245    12.5   732.9    0.00 
 142   11:00   0.66   55.2    31    6.7   253    16.1   732.9    0.00 
 142   11:10   0.86   54.6    31    7.8   256    14.9   732.9    0.00 
 142   11:20   1.04   55.3    30    6.9   216    13.7   732.8    0.00 
 142   11:30   0.93   55.9    29    8.9   228    17.3   732.7    0.00 
 142   11:40   0.60   56.0    30    7.1   230    15.5   732.7    0.00 
 142   11:50   0.57   54.3    31    7.2   254    14.3   732.7    0.00 
 142   12:00   0.48   55.1    30    8.0   239    16.7   732.6    0.00 
 142   12:10   0.75   55.0    28    9.7   261    15.5   732.5    0.00 
 142   12:20   0.47   54.6    28    8.2   264    16.7   732.5    0.00 
 142   12:30   0.81   55.3    29    8.5   257    17.9   732.6    0.00 
 142   12:40   0.90   56.4    29    9.8   252    17.3   732.5    0.00 
 142   12:50   0.91   56.9    29    8.0   261    13.7   732.5    0.00 
 142   13:00   1.03   57.5    27    9.3   268    17.3   732.4    0.00 
 142   13:10   0.91   57.0    26    9.2   236    17.9   732.3    0.00 
 142   13:20   0.99   58.0    26    9.1   259    14.9   732.3    0.00 
 142   13:30   0.83   58.1    24    9.5   259    17.3   732.2    0.00 
 142   13:40   0.80   58.1    26    9.0   273    22.7   732.2    0.00 
 142   13:50   0.94   58.8    26    8.6   240    16.7   732.1    0.00 
 142   14:00   0.92   58.6    26    8.1   240    14.9   732.0    0.00 
 142   14:10   0.40   57.3    24    8.3   269    16.7   731.9    0.00 
 142   14:20   0.81   57.7    24    9.5   262    18.5   731.8    0.00 
 142   14:30   0.61   58.4    24    8.5   264    16.1   731.8    0.00 
 142   14:40   0.42   57.0    25    9.0   257    19.1   731.8    0.00 
 142   14:50   0.56   57.1    26    8.8   271    17.3   731.8    0.00 
 142   15:00   0.79   58.7    26    8.8   274    16.7   731.6    0.00 
 142   15:10   0.49   58.9    24    9.4   276    17.3   731.6    0.00 
 142   15:20   0.74   58.7    25   10.1   260    18.5   731.6    0.00 
 142   15:30   0.41   58.0    24    9.0   276    15.5   731.6    0.00 
 142   15:40   0.70   58.9    24    9.3   257    18.5   731.6    0.00 
 142   15:50   0.53   58.4    23    9.8   263    20.3   731.6    0.00 
 142   16:00   0.57   58.3    25    7.8   276    16.7   731.5    0.00 
 142   16:10   0.60   59.3    22    9.8   269    17.9   731.4    0.00 
 142   16:20   0.54   59.7    22    9.0   290    16.7   731.4    0.00 
 142   16:30   0.51   60.0    21    7.8   269    19.7   731.5    0.00 
 142   16:40   0.45   59.3    22    9.4   278    20.9   731.4    0.00 
 142   16:50   0.43   59.2    20   10.5   290    18.5   731.4    0.00 
 142   17:00   0.39   58.9    21    9.2   287    17.3   731.4    0.00 
 142   17:10   0.36   58.4    22    9.9   293    19.1   731.4    0.00 
 142   17:20   0.32   58.4    23    8.1   283    18.5   731.3    0.00 
 142   17:30   0.29   57.8    25    8.4   264    16.7   731.3    0.00 
 142   17:40   0.26   57.5    24   10.6   296    19.1   731.3    0.00 
 142   17:50   0.23   57.3    25    7.6   274    14.9   731.4    0.00 
 142   18:00   0.20   56.8    25    9.0   292    17.9   731.4    0.00 
 142   18:10   0.17   57.0    25    8.7   303    19.1   731.4    0.00 
 142   18:20   0.14   56.2    26    8.3   287    16.7   731.4    0.00 
 142   18:30   0.10   55.7    27    8.1   293    14.9   731.5    0.00 
 142   18:40   0.07   55.2    27    5.6   282    11.3   731.7    0.00 
 142   18:50   0.03   53.8    27    8.9   292    17.9   731.8    0.00 
 142   19:00   0.01   51.8    28    8.6   292    18.5   731.8    0.00 
 142   19:10   0.01   51.0    28    7.6   290    14.9   731.8    0.00 
 142   19:20   0.00   50.2    30    6.0   293     9.6   731.7    0.00 
 142   19:30   0.00   49.3    31    5.0   317     9.0   731.7    0.00 
 142   19:40   0.00   48.8    31    6.8   321    13.7   731.8    0.00 
 142   19:50   0.00   48.3    32    5.2   323    10.8   731.9    0.00 
 142   20:00   0.00   47.9    32    5.7   320    12.5   731.8    0.00 
 142   20:10   0.00   47.4    33    5.2   329     7.2   731.9    0.00 
 142   20:20   0.00   46.8    35    5.0   325     7.2   731.9    0.00 
 142   20:30   0.00   46.8    36    5.9   321     8.4   731.9    0.00 
 142   20:40   0.00   47.1    37    5.4   321    11.3   732.0    0.00 
 142   20:50   0.00   46.2    38    3.5   349     6.0   732.2    0.00 
 142   21:00   0.00   45.1    41    3.0     2     4.8   732.3    0.00 
 142   21:10   0.00   43.9    44    3.0    19     4.8   732.2    0.00 
 142   21:20   0.00   43.4    43    4.5   351    12.5   732.2    0.00 
 142   21:30   0.00   44.9    40    5.6   328    10.2   732.2    0.00 
 142   21:40   0.00   45.5    38    6.0   324    10.2   732.2    0.00 
 142   21:50   0.00   45.9    36    6.9   317    13.1   732.2    0.00 
 142   22:00   0.00   45.8    36    5.7   328     9.0   732.2    0.00 
 142   22:10   0.00   45.5    36    5.7   334     9.0   732.2    0.00 
 142   22:20   0.00   45.4    36    6.4   320    13.7   732.2    0.00 
 142   22:30   0.00   45.7    35    7.3   322    11.9   732.2    0.00 
 142   22:40   0.00   45.4    36    7.0   322    10.8   732.1    0.00 
 142   22:50   0.00   45.3    36    7.7   322    11.3   732.0    0.00 
 142   23:00   0.00   45.2    35    6.9   320    13.7   731.9    0.00 
 142   23:10   0.00   44.7    36    6.3   321    10.8   731.9    0.00 
 142   23:20   0.00   44.4    36    5.8   332    10.2   731.9    0.00 
 142   23:30   0.00   44.0    36    5.4   335    10.2   731.9    0.00 
 142   23:40   0.00   43.8    37    5.0   337     7.8   731.9    0.00 
 142   23:50   0.00   43.2    38    4.2   342     6.6   732.0    0.00 
 143    0:00   0.00   43.2    38    4.9   315     8.4   732.0    0.00 
 143    0:10   0.00   43.1    38    3.7   324     6.0   732.1    0.00 
 143    0:20   0.00   42.4    40    2.0    90     4.2   732.2    0.00 
 143    0:30   0.00   41.7    41    3.7   128     6.0   732.3    0.00 
 143    0:40   0.00   41.3    41    2.5    49     4.2   732.3    0.00 
 143    0:50   0.00   40.3    43    3.3    33     4.8   732.4    0.00 
 143    1:00   0.00   38.7    47    3.8    39     4.8   732.4    0.00 
 143    1:10   0.00   37.7    48    4.1    35     4.8   732.2    0.00 
 143    1:20   0.00   37.2    50    3.4    38     4.8   732.1    0.00 
 143    1:30   0.00   36.8    51    4.4    38     5.4   732.1    0.00 
 143    1:40   0.00   36.5    51    3.7    39     4.8   732.1    0.00 
 143    1:50   0.00   36.6    51    3.8    38     4.8   732.2    0.00 
 143    2:00   0.00   36.6    51    3.4    39     4.8   732.1    0.00 
 143    2:10   0.00   36.5    51    2.1     4     3.0   732.1    0.00 
 143    2:20   0.00   36.1    53    3.9    44     4.8   732.2    0.00 
 143    2:30   0.00   35.8    53    4.0    32     4.8   732.1    0.00 
 143    2:40   0.00   35.8    54    3.0    25     4.8   732.1    0.00 
 143    2:50   0.00   36.2    55    2.2    54     3.0   732.1    0.00 
 143    3:00   0.00   36.6    54    1.9    44     3.0   732.1    0.00 
 143    3:10   0.00   37.0    52    2.5    50     3.6   732.1    0.00 
 143    3:20   0.00   37.8    53    2.4    71     3.6   732.1    0.00 

Return to Valle Toledo, Valles Caldera graphs page.


Western Regional Climate Center,wrcc@dri.edu